sensor_id;sensor_type;location;lat;lon;timestamp;P1;durP1;ratioP1;P2;durP2;ratioP2
80675;SDS011;70041;46.088;18.268;2023-05-17T00:01:16;21.00;;;10.77;;
80675;SDS011;70041;46.088;18.268;2023-05-17T00:03:42;18.63;;;10.53;;
80675;SDS011;70041;46.088;18.268;2023-05-17T00:06:07;17.73;;;10.18;;
80675;SDS011;70041;46.088;18.268;2023-05-17T00:08:33;16.37;;;9.37;;
80675;SDS011;70041;46.088;18.268;2023-05-17T00:10:58;15.83;;;9.60;;
80675;SDS011;70041;46.088;18.268;2023-05-17T00:13:23;16.52;;;10.27;;
80675;SDS011;70041;46.088;18.268;2023-05-17T00:15:49;20.85;;;10.15;;
80675;SDS011;70041;46.088;18.268;2023-05-17T00:18:14;15.73;;;10.43;;
80675;SDS011;70041;46.088;18.268;2023-05-17T00:20:40;16.00;;;9.20;;
80675;SDS011;70041;46.088;18.268;2023-05-17T00:23:05;15.13;;;9.90;;
80675;SDS011;70041;46.088;18.268;2023-05-17T00:25:31;16.15;;;9.40;;
80675;SDS011;70041;46.088;18.268;2023-05-17T00:27:56;21.05;;;10.68;;
80675;SDS011;70041;46.088;18.268;2023-05-17T00:30:21;19.43;;;10.67;;
80675;SDS011;70041;46.088;18.268;2023-05-17T00:32:47;22.60;;;11.23;;
80675;SDS011;70041;46.088;18.268;2023-05-17T00:35:12;18.67;;;9.67;;
80675;SDS011;70041;46.088;18.268;2023-05-17T00:37:38;18.23;;;9.80;;
80675;SDS011;70041;46.088;18.268;2023-05-17T00:40:04;21.37;;;9.90;;
80675;SDS011;70041;46.088;18.268;2023-05-17T00:42:30;17.90;;;8.85;;
80675;SDS011;70041;46.088;18.268;2023-05-17T00:44:55;16.97;;;8.80;;
80675;SDS011;70041;46.088;18.268;2023-05-17T00:47:21;18.50;;;8.90;;
80675;SDS011;70041;46.088;18.268;2023-05-17T00:49:46;15.50;;;8.70;;
80675;SDS011;70041;46.088;18.268;2023-05-17T00:52:12;16.02;;;8.27;;
80675;SDS011;70041;46.088;18.268;2023-05-17T00:54:38;15.90;;;8.50;;
80675;SDS011;70041;46.088;18.268;2023-05-17T00:57:04;16.55;;;7.65;;
80675;SDS011;70041;46.088;18.268;2023-05-17T00:59:30;16.63;;;8.48;;
80675;SDS011;70041;46.088;18.268;2023-05-17T01:01:56;15.47;;;8.63;;
80675;SDS011;70041;46.088;18.268;2023-05-17T01:04:22;12.95;;;8.35;;
80675;SDS011;70041;46.088;18.268;2023-05-17T01:06:48;16.05;;;8.68;;
80675;SDS011;70041;46.088;18.268;2023-05-17T01:09:14;14.38;;;8.40;;
80675;SDS011;70041;46.088;18.268;2023-05-17T01:17:00;15.23;;;8.25;;
80675;SDS011;70041;46.088;18.268;2023-05-17T01:24:52;117.23;;;12.97;;
80675;SDS011;70041;46.088;18.268;2023-05-17T01:27:29;81.10;;;11.10;;
80675;SDS011;70041;46.088;18.268;2023-05-17T01:29:56;83.60;;;11.10;;
80675;SDS011;70041;46.088;18.268;2023-05-17T01:32:23;76.60;;;11.13;;
80675;SDS011;70041;46.088;18.268;2023-05-17T01:34:49;108.40;;;11.80;;
80675;SDS011;70041;46.088;18.268;2023-05-17T01:37:14;101.37;;;11.20;;
80675;SDS011;70041;46.088;18.268;2023-05-17T01:39:40;62.95;;;9.95;;
80675;SDS011;70041;46.088;18.268;2023-05-17T01:42:09;101.23;;;10.80;;
80675;SDS011;70041;46.088;18.268;2023-05-17T01:44:49;76.30;;;11.23;;
80675;SDS011;70041;46.088;18.268;2023-05-17T01:47:20;75.32;;;10.82;;
80675;SDS011;70041;46.088;18.268;2023-05-17T01:49:52;46.43;;;9.30;;
80675;SDS011;70041;46.088;18.268;2023-05-17T01:57:34;21.52;;;8.18;;
80675;SDS011;70041;46.088;18.268;2023-05-17T02:00:02;19.27;;;8.60;;
80675;SDS011;70041;46.088;18.268;2023-05-17T02:02:35;33.10;;;8.20;;
80675;SDS011;70041;46.088;18.268;2023-05-17T02:05:01;19.92;;;8.20;;
80675;SDS011;70041;46.088;18.268;2023-05-17T02:07:26;38.53;;;9.17;;
80675;SDS011;70041;46.088;18.268;2023-05-17T02:09:52;36.13;;;8.93;;
80675;SDS011;70041;46.088;18.268;2023-05-17T02:12:17;44.87;;;9.77;;
80675;SDS011;70041;46.088;18.268;2023-05-17T02:14:42;53.78;;;10.32;;
80675;SDS011;70041;46.088;18.268;2023-05-17T02:17:08;42.57;;;9.47;;
80675;SDS011;70041;46.088;18.268;2023-05-17T02:19:33;38.00;;;10.10;;
80675;SDS011;70041;46.088;18.268;2023-05-17T02:21:59;27.17;;;8.80;;
80675;SDS011;70041;46.088;18.268;2023-05-17T02:24:24;30.17;;;9.40;;
80675;SDS011;70041;46.088;18.268;2023-05-17T02:26:50;21.23;;;8.53;;
80675;SDS011;70041;46.088;18.268;2023-05-17T02:29:15;37.33;;;9.47;;
80675;SDS011;70041;46.088;18.268;2023-05-17T02:31:41;29.03;;;9.10;;
80675;SDS011;70041;46.088;18.268;2023-05-17T02:34:06;15.65;;;8.70;;
80675;SDS011;70041;46.088;18.268;2023-05-17T02:36:31;14.67;;;7.87;;
80675;SDS011;70041;46.088;18.268;2023-05-17T02:38:57;15.77;;;7.87;;
80675;SDS011;70041;46.088;18.268;2023-05-17T02:41:22;18.03;;;8.23;;
80675;SDS011;70041;46.088;18.268;2023-05-17T02:43:48;16.27;;;7.82;;
80675;SDS011;70041;46.088;18.268;2023-05-17T02:46:14;18.67;;;7.60;;
80675;SDS011;70041;46.088;18.268;2023-05-17T02:48:39;14.07;;;7.27;;
80675;SDS011;70041;46.088;18.268;2023-05-17T02:51:05;18.45;;;7.63;;
80675;SDS011;70041;46.088;18.268;2023-05-17T02:53:30;17.07;;;7.83;;
80675;SDS011;70041;46.088;18.268;2023-05-17T02:55:56;15.43;;;7.00;;
80675;SDS011;70041;46.088;18.268;2023-05-17T02:58:24;14.80;;;6.20;;
80675;SDS011;70041;46.088;18.268;2023-05-17T03:00:50;15.37;;;6.70;;
80675;SDS011;70041;46.088;18.268;2023-05-17T03:03:15;14.38;;;6.85;;
80675;SDS011;70041;46.088;18.268;2023-05-17T03:05:41;15.50;;;6.33;;
80675;SDS011;70041;46.088;18.268;2023-05-17T03:08:06;12.82;;;5.97;;
80675;SDS011;70041;46.088;18.268;2023-05-17T03:10:32;12.43;;;5.90;;
80675;SDS011;70041;46.088;18.268;2023-05-17T03:12:57;12.03;;;5.87;;
80675;SDS011;70041;46.088;18.268;2023-05-17T03:15:23;14.40;;;5.97;;
80675;SDS011;70041;46.088;18.268;2023-05-17T03:17:50;12.77;;;5.30;;
80675;SDS011;70041;46.088;18.268;2023-05-17T03:20:16;11.10;;;5.22;;
80675;SDS011;70041;46.088;18.268;2023-05-17T03:22:42;13.50;;;6.97;;
80675;SDS011;70041;46.088;18.268;2023-05-17T03:25:07;13.43;;;6.88;;
80675;SDS011;70041;46.088;18.268;2023-05-17T03:27:33;13.27;;;6.87;;
80675;SDS011;70041;46.088;18.268;2023-05-17T03:29:59;11.85;;;7.00;;
80675;SDS011;70041;46.088;18.268;2023-05-17T03:32:24;12.20;;;6.63;;
80675;SDS011;70041;46.088;18.268;2023-05-17T03:34:50;13.13;;;6.23;;
80675;SDS011;70041;46.088;18.268;2023-05-17T03:37:15;13.57;;;6.03;;
80675;SDS011;70041;46.088;18.268;2023-05-17T03:39:41;12.32;;;5.18;;
80675;SDS011;70041;46.088;18.268;2023-05-17T03:42:06;10.27;;;5.07;;
80675;SDS011;70041;46.088;18.268;2023-05-17T03:44:31;9.30;;;4.23;;
80675;SDS011;70041;46.088;18.268;2023-05-17T03:46:57;10.80;;;5.13;;
80675;SDS011;70041;46.088;18.268;2023-05-17T03:49:22;11.55;;;4.90;;
80675;SDS011;70041;46.088;18.268;2023-05-17T03:51:48;13.10;;;4.73;;
80675;SDS011;70041;46.088;18.268;2023-05-17T03:54:13;15.17;;;5.23;;
80675;SDS011;70041;46.088;18.268;2023-05-17T03:56:38;10.67;;;5.07;;
80675;SDS011;70041;46.088;18.268;2023-05-17T03:59:04;9.40;;;4.30;;
80675;SDS011;70041;46.088;18.268;2023-05-17T04:01:29;10.48;;;4.55;;
80675;SDS011;70041;46.088;18.268;2023-05-17T04:03:55;12.33;;;4.83;;
80675;SDS011;70041;46.088;18.268;2023-05-17T04:06:20;12.70;;;5.43;;
80675;SDS011;70041;46.088;18.268;2023-05-17T04:08:46;10.43;;;5.07;;
80675;SDS011;70041;46.088;18.268;2023-05-17T04:11:11;11.93;;;5.63;;
80675;SDS011;70041;46.088;18.268;2023-05-17T04:13:41;14.00;;;5.97;;
80675;SDS011;70041;46.088;18.268;2023-05-17T04:16:07;11.45;;;5.60;;
80675;SDS011;70041;46.088;18.268;2023-05-17T04:18:36;13.80;;;5.65;;
80675;SDS011;70041;46.088;18.268;2023-05-17T04:21:03;13.10;;;6.18;;
80675;SDS011;70041;46.088;18.268;2023-05-17T04:23:29;15.32;;;6.90;;
80675;SDS011;70041;46.088;18.268;2023-05-17T04:25:56;13.32;;;6.20;;
80675;SDS011;70041;46.088;18.268;2023-05-17T04:28:22;14.15;;;6.55;;
80675;SDS011;70041;46.088;18.268;2023-05-17T04:30:47;15.18;;;7.43;;
80675;SDS011;70041;46.088;18.268;2023-05-17T04:33:13;13.80;;;6.53;;
80675;SDS011;70041;46.088;18.268;2023-05-17T04:35:40;11.40;;;6.67;;
80675;SDS011;70041;46.088;18.268;2023-05-17T04:38:06;14.05;;;6.75;;
80675;SDS011;70041;46.088;18.268;2023-05-17T04:40:32;14.75;;;7.28;;
80675;SDS011;70041;46.088;18.268;2023-05-17T04:42:58;14.83;;;6.73;;
80675;SDS011;70041;46.088;18.268;2023-05-17T04:45:23;16.13;;;6.85;;
80675;SDS011;70041;46.088;18.268;2023-05-17T04:47:49;15.10;;;7.22;;
80675;SDS011;70041;46.088;18.268;2023-05-17T04:50:15;18.77;;;7.43;;
80675;SDS011;70041;46.088;18.268;2023-05-17T04:52:41;14.50;;;6.93;;
80675;SDS011;70041;46.088;18.268;2023-05-17T04:55:06;14.23;;;6.78;;
80675;SDS011;70041;46.088;18.268;2023-05-17T04:57:32;15.83;;;6.77;;
80675;SDS011;70041;46.088;18.268;2023-05-17T04:59:57;15.87;;;7.30;;
80675;SDS011;70041;46.088;18.268;2023-05-17T05:02:23;14.10;;;6.55;;
80675;SDS011;70041;46.088;18.268;2023-05-17T05:04:48;16.67;;;6.40;;
80675;SDS011;70041;46.088;18.268;2023-05-17T05:07:13;13.87;;;6.43;;
80675;SDS011;70041;46.088;18.268;2023-05-17T05:09:39;13.47;;;6.17;;
80675;SDS011;70041;46.088;18.268;2023-05-17T05:12:05;14.57;;;6.40;;
80675;SDS011;70041;46.088;18.268;2023-05-17T05:14:30;14.50;;;6.20;;
80675;SDS011;70041;46.088;18.268;2023-05-17T05:16:56;13.67;;;6.87;;
80675;SDS011;70041;46.088;18.268;2023-05-17T05:19:21;12.77;;;6.55;;
80675;SDS011;70041;46.088;18.268;2023-05-17T05:21:46;12.60;;;6.07;;
80675;SDS011;70041;46.088;18.268;2023-05-17T05:24:12;13.80;;;6.37;;
80675;SDS011;70041;46.088;18.268;2023-05-17T05:26:37;15.40;;;6.67;;
80675;SDS011;70041;46.088;18.268;2023-05-17T05:29:03;14.77;;;6.00;;
80675;SDS011;70041;46.088;18.268;2023-05-17T05:31:28;17.10;;;7.63;;
80675;SDS011;70041;46.088;18.268;2023-05-17T05:33:54;16.70;;;6.83;;
80675;SDS011;70041;46.088;18.268;2023-05-17T05:36:19;14.70;;;7.27;;
80675;SDS011;70041;46.088;18.268;2023-05-17T05:38:45;10.80;;;5.95;;
80675;SDS011;70041;46.088;18.268;2023-05-17T05:41:11;14.17;;;7.30;;
80675;SDS011;70041;46.088;18.268;2023-05-17T05:43:36;14.75;;;7.10;;
80675;SDS011;70041;46.088;18.268;2023-05-17T05:46:02;14.77;;;7.40;;
80675;SDS011;70041;46.088;18.268;2023-05-17T05:48:28;13.93;;;7.72;;
80675;SDS011;70041;46.088;18.268;2023-05-17T05:50:53;13.43;;;7.10;;
80675;SDS011;70041;46.088;18.268;2023-05-17T05:53:19;13.70;;;7.33;;
80675;SDS011;70041;46.088;18.268;2023-05-17T05:55:44;13.98;;;7.10;;
80675;SDS011;70041;46.088;18.268;2023-05-17T05:58:09;13.27;;;7.03;;
80675;SDS011;70041;46.088;18.268;2023-05-17T06:00:35;13.33;;;7.17;;
80675;SDS011;70041;46.088;18.268;2023-05-17T06:03:01;13.88;;;7.35;;
80675;SDS011;70041;46.088;18.268;2023-05-17T06:05:26;12.87;;;7.10;;
80675;SDS011;70041;46.088;18.268;2023-05-17T06:07:52;13.50;;;7.17;;
80675;SDS011;70041;46.088;18.268;2023-05-17T06:10:17;14.80;;;7.43;;
80675;SDS011;70041;46.088;18.268;2023-05-17T06:12:43;13.85;;;7.47;;
80675;SDS011;70041;46.088;18.268;2023-05-17T06:15:08;14.70;;;7.17;;
80675;SDS011;70041;46.088;18.268;2023-05-17T06:17:34;15.07;;;7.55;;
80675;SDS011;70041;46.088;18.268;2023-05-17T06:20:00;14.87;;;7.57;;
80675;SDS011;70041;46.088;18.268;2023-05-17T06:22:25;13.13;;;7.57;;
80675;SDS011;70041;46.088;18.268;2023-05-17T06:24:50;14.10;;;7.70;;
80675;SDS011;70041;46.088;18.268;2023-05-17T06:27:16;13.02;;;6.75;;
80675;SDS011;70041;46.088;18.268;2023-05-17T06:29:41;13.80;;;7.17;;
80675;SDS011;70041;46.088;18.268;2023-05-17T06:32:07;13.27;;;6.47;;
80675;SDS011;70041;46.088;18.268;2023-05-17T06:34:32;12.20;;;6.70;;
80675;SDS011;70041;46.088;18.268;2023-05-17T06:36:57;12.70;;;6.80;;
80675;SDS011;70041;46.088;18.268;2023-05-17T06:39:23;15.45;;;7.40;;
80675;SDS011;70041;46.088;18.268;2023-05-17T06:41:48;14.47;;;7.70;;
80675;SDS011;70041;46.088;18.268;2023-05-17T06:44:14;13.83;;;6.57;;
80675;SDS011;70041;46.088;18.268;2023-05-17T06:46:39;13.43;;;6.73;;
80675;SDS011;70041;46.088;18.268;2023-05-17T06:49:04;13.82;;;6.88;;
80675;SDS011;70041;46.088;18.268;2023-05-17T06:51:30;13.57;;;6.77;;
80675;SDS011;70041;46.088;18.268;2023-05-17T06:53:55;11.93;;;6.70;;
80675;SDS011;70041;46.088;18.268;2023-05-17T06:56:21;13.70;;;6.17;;
80675;SDS011;70041;46.088;18.268;2023-05-17T06:58:46;12.35;;;6.32;;
80675;SDS011;70041;46.088;18.268;2023-05-17T07:01:12;11.02;;;6.05;;
80675;SDS011;70041;46.088;18.268;2023-05-17T07:03:39;13.23;;;6.18;;
80675;SDS011;70041;46.088;18.268;2023-05-17T07:06:05;10.53;;;5.50;;
80675;SDS011;70041;46.088;18.268;2023-05-17T07:08:30;11.47;;;6.13;;
80675;SDS011;70041;46.088;18.268;2023-05-17T07:10:56;10.80;;;5.43;;
80675;SDS011;70041;46.088;18.268;2023-05-17T07:13:21;8.75;;;4.95;;
80675;SDS011;70041;46.088;18.268;2023-05-17T07:15:46;9.27;;;5.07;;
80675;SDS011;70041;46.088;18.268;2023-05-17T07:18:12;9.60;;;4.70;;
80675;SDS011;70041;46.088;18.268;2023-05-17T07:20:38;9.30;;;4.80;;
80675;SDS011;70041;46.088;18.268;2023-05-17T07:23:03;7.85;;;4.28;;
80675;SDS011;70041;46.088;18.268;2023-05-17T07:25:30;8.70;;;4.30;;
80675;SDS011;70041;46.088;18.268;2023-05-17T07:27:56;8.95;;;3.83;;
80675;SDS011;70041;46.088;18.268;2023-05-17T07:30:21;8.20;;;3.83;;
80675;SDS011;70041;46.088;18.268;2023-05-17T07:32:46;9.07;;;3.47;;
80675;SDS011;70041;46.088;18.268;2023-05-17T07:35:12;7.80;;;3.60;;
80675;SDS011;70041;46.088;18.268;2023-05-17T07:37:37;8.00;;;3.80;;
80675;SDS011;70041;46.088;18.268;2023-05-17T07:40:03;8.50;;;3.73;;
80675;SDS011;70041;46.088;18.268;2023-05-17T07:42:29;7.35;;;3.17;;
80675;SDS011;70041;46.088;18.268;2023-05-17T07:44:55;6.63;;;2.80;;
80675;SDS011;70041;46.088;18.268;2023-05-17T07:47:20;6.57;;;3.00;;
80675;SDS011;70041;46.088;18.268;2023-05-17T07:49:45;9.27;;;3.37;;
80675;SDS011;70041;46.088;18.268;2023-05-17T07:52:11;7.80;;;3.40;;
80675;SDS011;70041;46.088;18.268;2023-05-17T07:54:36;7.30;;;3.67;;
80675;SDS011;70041;46.088;18.268;2023-05-17T07:57:02;8.20;;;3.63;;
80675;SDS011;70041;46.088;18.268;2023-05-17T07:59:27;6.77;;;3.10;;
80675;SDS011;70041;46.088;18.268;2023-05-17T08:01:53;6.87;;;2.47;;
80675;SDS011;70041;46.088;18.268;2023-05-17T08:04:18;6.70;;;2.80;;
80675;SDS011;70041;46.088;18.268;2023-05-17T08:06:44;7.27;;;2.47;;
80675;SDS011;70041;46.088;18.268;2023-05-17T08:09:14;5.25;;;2.40;;
80675;SDS011;70041;46.088;18.268;2023-05-17T08:11:40;5.47;;;2.57;;
80675;SDS011;70041;46.088;18.268;2023-05-17T08:14:10;6.80;;;2.25;;
80675;SDS011;70041;46.088;18.268;2023-05-17T08:16:37;5.45;;;2.28;;
80675;SDS011;70041;46.088;18.268;2023-05-17T08:19:03;4.77;;;2.03;;
80675;SDS011;70041;46.088;18.268;2023-05-17T08:21:28;5.17;;;2.00;;
80675;SDS011;70041;46.088;18.268;2023-05-17T08:23:54;4.50;;;1.65;;
80675;SDS011;70041;46.088;18.268;2023-05-17T08:26:19;4.70;;;1.70;;
80675;SDS011;70041;46.088;18.268;2023-05-17T08:28:44;3.67;;;1.50;;
80675;SDS011;70041;46.088;18.268;2023-05-17T08:31:10;7.22;;;1.70;;
80675;SDS011;70041;46.088;18.268;2023-05-17T08:33:36;7.03;;;1.90;;
80675;SDS011;70041;46.088;18.268;2023-05-17T08:36:02;3.70;;;1.40;;
80675;SDS011;70041;46.088;18.268;2023-05-17T08:38:31;4.25;;;1.60;;
80675;SDS011;70041;46.088;18.268;2023-05-17T08:40:58;3.80;;;1.60;;
80675;SDS011;70041;46.088;18.268;2023-05-17T08:43:24;4.70;;;1.50;;
80675;SDS011;70041;46.088;18.268;2023-05-17T08:45:50;3.60;;;1.40;;
80675;SDS011;70041;46.088;18.268;2023-05-17T08:48:17;5.57;;;1.73;;
80675;SDS011;70041;46.088;18.268;2023-05-17T08:50:46;4.07;;;1.50;;
80675;SDS011;70041;46.088;18.268;2023-05-17T08:53:14;3.53;;;1.35;;
80675;SDS011;70041;46.088;18.268;2023-05-17T08:55:41;3.97;;;1.42;;
80675;SDS011;70041;46.088;18.268;2023-05-17T08:58:11;4.53;;;1.70;;
80675;SDS011;70041;46.088;18.268;2023-05-17T09:00:38;4.63;;;1.70;;
80675;SDS011;70041;46.088;18.268;2023-05-17T09:03:04;4.18;;;1.42;;
80675;SDS011;70041;46.088;18.268;2023-05-17T09:05:30;4.22;;;1.33;;
80675;SDS011;70041;46.088;18.268;2023-05-17T09:07:56;3.63;;;1.33;;
80675;SDS011;70041;46.088;18.268;2023-05-17T09:10:23;4.53;;;1.60;;
80675;SDS011;70041;46.088;18.268;2023-05-17T09:12:48;4.13;;;1.20;;
80675;SDS011;70041;46.088;18.268;2023-05-17T09:15:15;4.40;;;1.70;;
80675;SDS011;70041;46.088;18.268;2023-05-17T09:17:42;3.42;;;1.38;;
80675;SDS011;70041;46.088;18.268;2023-05-17T09:20:15;4.00;;;1.38;;
80675;SDS011;70041;46.088;18.268;2023-05-17T09:22:50;5.10;;;1.67;;
80675;SDS011;70041;46.088;18.268;2023-05-17T09:25:19;6.22;;;1.95;;
80675;SDS011;70041;46.088;18.268;2023-05-17T09:27:47;5.32;;;1.85;;
80675;SDS011;70041;46.088;18.268;2023-05-17T09:30:16;3.50;;;1.20;;
80675;SDS011;70041;46.088;18.268;2023-05-17T09:32:42;3.23;;;1.20;;
80675;SDS011;70041;46.088;18.268;2023-05-17T09:35:10;5.60;;;1.40;;
80675;SDS011;70041;46.088;18.268;2023-05-17T09:37:38;6.00;;;1.53;;
80675;SDS011;70041;46.088;18.268;2023-05-17T09:40:06;4.55;;;1.48;;
80675;SDS011;70041;46.088;18.268;2023-05-17T09:42:33;3.20;;;1.40;;
80675;SDS011;70041;46.088;18.268;2023-05-17T09:45:03;4.18;;;1.33;;
80675;SDS011;70041;46.088;18.268;2023-05-17T09:47:29;3.87;;;1.60;;
80675;SDS011;70041;46.088;18.268;2023-05-17T09:49:56;3.42;;;1.20;;
80675;SDS011;70041;46.088;18.268;2023-05-17T09:52:22;4.47;;;1.80;;
80675;SDS011;70041;46.088;18.268;2023-05-17T09:54:55;3.63;;;1.40;;
80675;SDS011;70041;46.088;18.268;2023-05-17T09:57:25;4.78;;;1.77;;
80675;SDS011;70041;46.088;18.268;2023-05-17T09:59:55;4.77;;;1.83;;
80675;SDS011;70041;46.088;18.268;2023-05-17T10:02:26;6.25;;;2.38;;
80675;SDS011;70041;46.088;18.268;2023-05-17T10:04:54;5.40;;;1.95;;
80675;SDS011;70041;46.088;18.268;2023-05-17T10:07:21;4.65;;;1.73;;
80675;SDS011;70041;46.088;18.268;2023-05-17T10:09:50;4.97;;;1.75;;
80675;SDS011;70041;46.088;18.268;2023-05-17T10:12:16;3.87;;;1.60;;
80675;SDS011;70041;46.088;18.268;2023-05-17T10:14:43;4.28;;;1.70;;
80675;SDS011;70041;46.088;18.268;2023-05-17T10:17:10;6.00;;;1.85;;
80675;SDS011;70041;46.088;18.268;2023-05-17T10:19:37;3.40;;;1.40;;
80675;SDS011;70041;46.088;18.268;2023-05-17T10:22:02;3.50;;;1.80;;
80675;SDS011;70041;46.088;18.268;2023-05-17T10:24:29;4.90;;;1.73;;
80675;SDS011;70041;46.088;18.268;2023-05-17T10:26:56;5.70;;;1.65;;
80675;SDS011;70041;46.088;18.268;2023-05-17T10:29:21;4.22;;;1.70;;
80675;SDS011;70041;46.088;18.268;2023-05-17T10:31:48;5.15;;;2.00;;
80675;SDS011;70041;46.088;18.268;2023-05-17T10:34:15;4.43;;;1.70;;
80675;SDS011;70041;46.088;18.268;2023-05-17T10:36:42;4.82;;;1.90;;
80675;SDS011;70041;46.088;18.268;2023-05-17T10:39:09;4.90;;;2.00;;
80675;SDS011;70041;46.088;18.268;2023-05-17T10:41:36;6.35;;;2.03;;
80675;SDS011;70041;46.088;18.268;2023-05-17T10:44:12;5.03;;;2.33;;
80675;SDS011;70041;46.088;18.268;2023-05-17T10:46:40;4.77;;;2.00;;
80675;SDS011;70041;46.088;18.268;2023-05-17T10:49:15;4.75;;;1.90;;
80675;SDS011;70041;46.088;18.268;2023-05-17T10:51:41;6.05;;;2.00;;
80675;SDS011;70041;46.088;18.268;2023-05-17T10:54:13;5.63;;;2.30;;
80675;SDS011;70041;46.088;18.268;2023-05-17T10:56:49;4.32;;;1.98;;
80675;SDS011;70041;46.088;18.268;2023-05-17T11:01:58;5.10;;;1.80;;
80675;SDS011;70041;46.088;18.268;2023-05-17T11:09:48;6.60;;;2.67;;
80675;SDS011;70041;46.088;18.268;2023-05-17T11:12:15;6.07;;;1.90;;
80675;SDS011;70041;46.088;18.268;2023-05-17T11:14:51;6.35;;;2.33;;
80675;SDS011;70041;46.088;18.268;2023-05-17T11:17:18;5.80;;;2.40;;
80675;SDS011;70041;46.088;18.268;2023-05-17T11:22:34;5.63;;;2.65;;
80675;SDS011;70041;46.088;18.268;2023-05-17T11:25:11;6.67;;;2.40;;
80675;SDS011;70041;46.088;18.268;2023-05-17T11:27:44;5.20;;;2.25;;
80675;SDS011;70041;46.088;18.268;2023-05-17T11:30:30;5.95;;;2.40;;
80675;SDS011;70041;46.088;18.268;2023-05-17T11:33:00;4.88;;;2.25;;
80675;SDS011;70041;46.088;18.268;2023-05-17T11:35:34;4.90;;;2.10;;
80675;SDS011;70041;46.088;18.268;2023-05-17T11:38:20;5.50;;;2.10;;
80675;SDS011;70041;46.088;18.268;2023-05-17T11:40:48;6.32;;;2.05;;
80675;SDS011;70041;46.088;18.268;2023-05-17T11:43:20;5.07;;;2.05;;
80675;SDS011;70041;46.088;18.268;2023-05-17T11:48:16;5.63;;;2.00;;
80675;SDS011;70041;46.088;18.268;2023-05-17T11:50:44;5.83;;;2.30;;
80675;SDS011;70041;46.088;18.268;2023-05-17T11:53:11;7.00;;;2.45;;
80675;SDS011;70041;46.088;18.268;2023-05-17T11:55:38;6.07;;;2.22;;
80675;SDS011;70041;46.088;18.268;2023-05-17T11:58:06;6.97;;;2.60;;
80675;SDS011;70041;46.088;18.268;2023-05-17T12:00:33;6.00;;;2.30;;
80675;SDS011;70041;46.088;18.268;2023-05-17T12:05:45;6.57;;;2.10;;
80675;SDS011;70041;46.088;18.268;2023-05-17T12:08:20;5.47;;;2.03;;
80675;SDS011;70041;46.088;18.268;2023-05-17T12:11:06;4.65;;;1.95;;
80675;SDS011;70041;46.088;18.268;2023-05-17T12:13:35;4.85;;;2.10;;
80675;SDS011;70041;46.088;18.268;2023-05-17T12:16:02;7.07;;;1.97;;
80675;SDS011;70041;46.088;18.268;2023-05-17T12:18:49;4.93;;;2.13;;
80675;SDS011;70041;46.088;18.268;2023-05-17T12:21:16;3.08;;;1.48;;
80675;SDS011;70041;46.088;18.268;2023-05-17T12:23:46;9.07;;;1.93;;
80675;SDS011;70041;46.088;18.268;2023-05-17T12:26:15;3.50;;;1.40;;
80675;SDS011;70041;46.088;18.268;2023-05-17T12:28:43;3.45;;;1.50;;
80675;SDS011;70041;46.088;18.268;2023-05-17T12:33:57;4.03;;;1.70;;
80675;SDS011;70041;46.088;18.268;2023-05-17T12:36:26;3.80;;;1.50;;
80675;SDS011;70041;46.088;18.268;2023-05-17T12:38:53;4.47;;;1.80;;
80675;SDS011;70041;46.088;18.268;2023-05-17T12:41:20;5.45;;;1.95;;
80675;SDS011;70041;46.088;18.268;2023-05-17T12:43:46;4.85;;;1.83;;
80675;SDS011;70041;46.088;18.268;2023-05-17T12:46:15;4.35;;;1.67;;
80675;SDS011;70041;46.088;18.268;2023-05-17T12:48:42;5.50;;;1.70;;
80675;SDS011;70041;46.088;18.268;2023-05-17T12:51:12;3.50;;;1.27;;
80675;SDS011;70041;46.088;18.268;2023-05-17T12:53:39;5.22;;;1.60;;
80675;SDS011;70041;46.088;18.268;2023-05-17T12:56:06;4.15;;;1.30;;
80675;SDS011;70041;46.088;18.268;2023-05-17T12:58:32;6.25;;;1.63;;
80675;SDS011;70041;46.088;18.268;2023-05-17T13:01:01;4.30;;;1.60;;
80675;SDS011;70041;46.088;18.268;2023-05-17T13:03:29;3.30;;;1.30;;
80675;SDS011;70041;46.088;18.268;2023-05-17T13:05:58;3.35;;;1.42;;
80675;SDS011;70041;46.088;18.268;2023-05-17T13:08:25;3.35;;;1.50;;
80675;SDS011;70041;46.088;18.268;2023-05-17T13:10:51;4.20;;;1.30;;
80675;SDS011;70041;46.088;18.268;2023-05-17T13:13:17;5.73;;;1.50;;
80675;SDS011;70041;46.088;18.268;2023-05-17T13:15:44;4.18;;;1.42;;
80675;SDS011;70041;46.088;18.268;2023-05-17T13:18:11;5.55;;;1.70;;
80675;SDS011;70041;46.088;18.268;2023-05-17T13:20:41;4.70;;;1.30;;
80675;SDS011;70041;46.088;18.268;2023-05-17T13:23:08;4.78;;;1.48;;
80675;SDS011;70041;46.088;18.268;2023-05-17T13:25:33;2.85;;;1.10;;
80675;SDS011;70041;46.088;18.268;2023-05-17T13:28:00;3.33;;;1.20;;
80675;SDS011;70041;46.088;18.268;2023-05-17T13:30:26;3.05;;;1.40;;
80675;SDS011;70041;46.088;18.268;2023-05-17T13:32:52;2.47;;;1.10;;
80675;SDS011;70041;46.088;18.268;2023-05-17T13:35:18;3.28;;;1.10;;
80675;SDS011;70041;46.088;18.268;2023-05-17T13:37:44;4.07;;;1.30;;
80675;SDS011;70041;46.088;18.268;2023-05-17T13:40:09;4.77;;;1.23;;
80675;SDS011;70041;46.088;18.268;2023-05-17T13:42:35;2.30;;;1.20;;
80675;SDS011;70041;46.088;18.268;2023-05-17T13:45:01;4.00;;;1.40;;
80675;SDS011;70041;46.088;18.268;2023-05-17T13:47:26;4.43;;;1.48;;
80675;SDS011;70041;46.088;18.268;2023-05-17T13:49:56;3.47;;;1.50;;
80675;SDS011;70041;46.088;18.268;2023-05-17T13:52:24;3.58;;;1.42;;
80675;SDS011;70041;46.088;18.268;2023-05-17T13:54:50;4.63;;;1.30;;
80675;SDS011;70041;46.088;18.268;2023-05-17T13:57:16;3.80;;;1.50;;
80675;SDS011;70041;46.088;18.268;2023-05-17T13:59:41;2.37;;;1.10;;
80675;SDS011;70041;46.088;18.268;2023-05-17T14:02:07;3.30;;;1.25;;
80675;SDS011;70041;46.088;18.268;2023-05-17T14:04:33;3.67;;;1.30;;
80675;SDS011;70041;46.088;18.268;2023-05-17T14:06:59;4.20;;;1.38;;
80675;SDS011;70041;46.088;18.268;2023-05-17T14:09:25;5.13;;;1.40;;
80675;SDS011;70041;46.088;18.268;2023-05-17T14:11:51;4.53;;;1.30;;
80675;SDS011;70041;46.088;18.268;2023-05-17T14:14:16;3.33;;;1.42;;
80675;SDS011;70041;46.088;18.268;2023-05-17T14:16:42;3.10;;;1.30;;
80675;SDS011;70041;46.088;18.268;2023-05-17T14:19:07;2.73;;;1.23;;
80675;SDS011;70041;46.088;18.268;2023-05-17T14:21:33;3.97;;;1.30;;
80675;SDS011;70041;46.088;18.268;2023-05-17T14:23:58;3.95;;;1.23;;
80675;SDS011;70041;46.088;18.268;2023-05-17T14:26:23;4.38;;;1.60;;
80675;SDS011;70041;46.088;18.268;2023-05-17T14:28:50;3.33;;;1.38;;
80675;SDS011;70041;46.088;18.268;2023-05-17T14:31:15;4.68;;;1.40;;
80675;SDS011;70041;46.088;18.268;2023-05-17T14:33:41;4.40;;;1.43;;
80675;SDS011;70041;46.088;18.268;2023-05-17T14:36:06;4.10;;;1.43;;
80675;SDS011;70041;46.088;18.268;2023-05-17T14:38:32;3.38;;;1.40;;
80675;SDS011;70041;46.088;18.268;2023-05-17T14:40:57;3.77;;;1.40;;
80675;SDS011;70041;46.088;18.268;2023-05-17T14:43:24;4.43;;;1.40;;
80675;SDS011;70041;46.088;18.268;2023-05-17T14:45:50;4.13;;;1.50;;
80675;SDS011;70041;46.088;18.268;2023-05-17T14:48:15;3.57;;;1.43;;
80675;SDS011;70041;46.088;18.268;2023-05-17T14:50:41;3.97;;;1.45;;
80675;SDS011;70041;46.088;18.268;2023-05-17T14:53:06;5.28;;;1.48;;
80675;SDS011;70041;46.088;18.268;2023-05-17T14:55:31;3.93;;;1.60;;
80675;SDS011;70041;46.088;18.268;2023-05-17T14:57:57;2.83;;;1.30;;
80675;SDS011;70041;46.088;18.268;2023-05-17T15:00:23;4.85;;;1.60;;